Flight Track Log - Related Links

Times and Time Zones

All times are in EDT time to prevent confusion due to time zone crossing. See the AAY859 flight status page for this flight to view local times or setup timezone preferences in your user account.

Time Position Orientation Groundspeed Altitude Reporting Facility
EDT Latitude Longitude Course Direction KTS MPH feet Rate Location/Type
Thu 03:46:03 PM 39.0167 -84.6500 159° South 173 199 1,600  Level Cincinnati TRACON
Thu 03:46:51 PM 38.9833 -84.6333 159° South 181 208 2,900 1,667 Climbing Cincinnati TRACON
Thu 03:47:51 PM 38.9167 -84.6167 169° South 307 353 4,600 2,133 Climbing Cincinnati TRACON
Thu 03:49:06 PM 38.8303 -84.5875 165° South 276 318 7,700 2,496 Climbing Indianapolis Center
Thu 03:50:08 PM 38.7472 -84.5694 170° South 295 339 10,300 1,887 Climbing Indianapolis Center
Thu 03:51:10 PM 38.6431 -84.5494 171° South 345 397 11,600 1,887 Climbing Indianapolis Center
Thu 03:52:12 PM 38.5114 -84.5236 171° South 396 456 14,200 2,323 Climbing Indianapolis Center
Thu 03:53:14 PM 38.3969 -84.5022 172° South 411 473 16,400 1,984 Climbing Indianapolis Center
Thu 03:54:16 PM 38.2778 -84.4981 178° South 423 487 18,300 1,790 Climbing Indianapolis Center
Thu 03:55:18 PM 38.1561 -84.4911 177° South 431 496 20,100 1,694 Climbing Indianapolis Center
Thu 03:56:20 PM 38.0325 -84.4781 175° South 441 507 21,800 1,488 Climbing Indianapolis Center
Thu 03:57:23 PM 37.8856 -84.4600 174° South 450 518 23,200 1,392 Climbing Indianapolis Center
Thu 03:58:25 PM 37.7531 -84.4481 176° South 469 540 24,700 1,452 Climbing Indianapolis Center
Thu 03:59:27 PM 37.6233 -84.4319 174° South 469 540 26,200 1,403 Climbing Indianapolis Center
Thu 04:00:29 PM 37.4936 -84.4044 170° South 469 540 27,600 1,355 Climbing Indianapolis Center
Thu 04:01:31 PM 37.3653 -84.3653 166° South 471 542 29,000 1,536 Climbing Indianapolis Center
Thu 04:02:34 PM 37.2206 -84.3144 164° South 469 540 30,800 1,248 Climbing Indianapolis Center
Thu 04:03:36 PM 37.0950 -84.2725 165° South 469 540 31,600 774 Climbing Indianapolis Center
Thu 04:04:38 PM 36.9697 -84.2350 167° South 465 535 32,400 677 Climbing Indianapolis Center
Thu 04:05:40 PM 36.8442 -84.1967 166° South 465 535 33,000 290 Climbing Indianapolis Center
Thu 04:06:42 PM 36.7219 -84.1558 165° South 461 531 33,000  Level Indianapolis Center
Thu 04:07:44 PM 36.5783 -84.1078 165° South 458 527 33,000  Level Indianapolis Center
Thu 04:08:46 PM 36.4519 -84.0672 166° South 462 532 33,000  Level Indianapolis Center
Thu 04:09:48 PM 36.3281 -84.0286 166° South 462 532 33,000  Level Indianapolis Center
Thu 04:10:50 PM 36.2058 -83.9897 166° South 456 525 33,000  Level Indianapolis Center
Thu 04:11:52 PM 36.0831 -83.9506 166° South 455 524 33,000  Level Indianapolis Center
Thu 04:12:55 PM 35.9561 -83.9106 166° South 450 518 33,000  Level Atlanta Center
Thu 04:13:55 PM 35.8328 -83.8747 167° South 450 518 33,000  Level Atlanta Center
Thu 04:14:55 PM 35.7119 -83.8367 166° South 450 518 33,000  Level Atlanta Center
Thu 04:15:55 PM 35.5928 -83.8039 167° South 450 518 33,000  Level Atlanta Center
Thu 04:16:55 PM 35.4717 -83.7683 167° South 450 518 33,000  Level Atlanta Center
Thu 04:17:55 PM 35.3506 -83.7306 166° South 450 518 33,000  Level Atlanta Center
Thu 04:18:55 PM 35.2336 -83.6956 166° South 450 518 33,000  Level Atlanta Center
Thu 04:19:55 PM 35.1125 -83.6606 167° South 450 518 33,000  Level Atlanta Center
Thu 04:20:55 PM 34.9914 -83.6281 168° South 450 518 33,000  Level Atlanta Center
Thu 04:21:55 PM 34.8850 -83.5931 165° South 450 518 33,000  Level Atlanta Center
Thu 04:22:55 PM 34.7533 -83.5558 167° South 445 512 33,000  Level Atlanta Center
Thu 04:23:55 PM 34.6300 -83.5211 167° South 445 512 33,000  Level Atlanta Center
Thu 04:24:55 PM 34.5108 -83.4867 167° South 450 518 33,000  Level Atlanta Center
Thu 04:25:55 PM 34.3878 -83.4497 166° South 450 518 33,000  Level Atlanta Center
Thu 04:26:55 PM 34.2767 -83.3928 157° South 450 518 33,000  Level Atlanta Center
Thu 04:27:55 PM 34.1658 -83.3233 153° Southeast 445 512 33,000  Level Atlanta Center
Thu 04:28:55 PM 34.0569 -83.2539 152° Southeast 445 512 33,000  Level Atlanta Center
Thu 04:29:55 PM 33.9436 -83.1850 153° Southeast 445 512 33,000  Level Atlanta Center
Thu 04:31:55 PM 33.7050 -83.0975 180° South 450 518 33,000  Level Atlanta Center
Thu 04:32:55 PM 33.5797 -83.0689 169° South 444 511 33,000  Level Atlanta Center
Thu 04:33:55 PM 33.4625 -83.0353 167° South 449 517 33,000 100 Level Atlanta Center
Thu 04:34:55 PM 33.3411 -82.9994 166° South 449 517 33,200 500 Climbing Atlanta Center
Thu 04:35:55 PM 33.2197 -82.9686 168° South 449 517 34,000 400 Climbing Atlanta Center
Thu 04:36:55 PM 33.1006 -82.9353 167° South 449 517 34,000  Level Atlanta Center
Thu 04:37:55 PM 32.9833 -82.9047 168° South 444 511 34,000  Level Atlanta Center
Thu 04:39:29 PM 32.7844 -82.8481 167° South 454 522 34,000  Level Jacksonville Center
Thu 04:40:29 PM 32.6781 -82.8186 167° South 449 517 34,000  Level Jacksonville Center
Thu 04:41:29 PM 32.5611 -82.7892 168° South 449 517 34,000  Level Jacksonville Center
Thu 04:42:29 PM 32.4419 -82.7547 166° South 443 510 34,000  Level Jacksonville Center
Thu 04:43:29 PM 32.3147 -82.7181 166° South 432 497 34,000  Level Jacksonville Center
Thu 04:44:29 PM 32.1978 -82.6864 167° South 432 497 34,000  Level Jacksonville Center
Thu 04:45:29 PM 32.0808 -82.6547 167° South 432 497 34,000  Level Jacksonville Center
Thu 04:46:29 PM 31.9658 -82.6233 167° South 432 497 34,000  Level Jacksonville Center
Thu 04:47:29 PM 31.8489 -82.5917 167° South 432 497 34,000  Level Jacksonville Center
Thu 04:48:29 PM 31.7319 -82.5603 167° South 432 497 34,000  Level Jacksonville Center
Thu 04:49:29 PM 31.6147 -82.5292 167° South 432 497 34,000  Level Jacksonville Center
Thu 04:50:29 PM 31.4978 -82.5050 170° South 432 497 34,000  Level Jacksonville Center
Thu 04:51:29 PM 31.3789 -82.5081 181° South 427 491 34,000  Level Jacksonville Center
Thu 04:52:29 PM 31.2597 -82.5256 187° South 421 484 34,000  Level Jacksonville Center
Thu 04:53:29 PM 31.1408 -82.5308 182° South 421 484 34,000  Level Jacksonville Center
Thu 04:54:29 PM 31.0219 -82.5339 181° South 421 484 34,000  Level Jacksonville Center
Thu 04:55:29 PM 30.9028 -82.5392 182° South 421 484 34,000  Level Jacksonville Center
Thu 04:56:29 PM 30.7817 -82.5419 181° South 426 490 34,000  Level Jacksonville Center
Thu 04:57:29 PM 30.6628 -82.5497 183° South 426 490 34,000  Level Jacksonville Center
Thu 04:58:29 PM 30.5439 -82.5550 182° South 426 490 34,000  Level Jacksonville Center
Thu 04:59:29 PM 30.4289 -82.5842 192° South 426 490 34,000 -50 Level Jacksonville Center
Thu 05:00:29 PM 30.3122 -82.6158 193° South 426 490 33,900 -767 Descending Jacksonville Center
Thu 05:02:29 PM 30.0844 -82.5756 171° South 415 478 31,700 -1,167 Descending Jacksonville Center
Thu 05:03:29 PM 29.9800 -82.5208 156° South 404 465 30,400 -1,100 Descending Jacksonville Center
Thu 05:04:29 PM 29.8964 -82.4853 160° South 410 472 29,500 -1,050 Descending Jacksonville Center
Thu 05:05:29 PM 29.7814 -82.4356 159° South 410 472 28,300 -1,200 Descending Jacksonville Center
Thu 05:06:29 PM 29.6767 -82.3953 162° South 410 472 27,100 -1,250 Descending Jacksonville Center
Thu 05:07:29 PM 29.5744 -82.3553 161° South 405 466 25,800 -1,200 Descending Jacksonville Center
Thu 05:08:29 PM 29.4678 -82.3417 174° South 395 455 24,700 -1,200 Descending Jacksonville Center
Thu 05:09:29 PM 29.3592 -82.3303 175° South 390 449 23,400 -1,250 Descending Jacksonville Center
Thu 05:10:29 PM 29.2589 -82.3214 176° South 380 437 22,200 -1,200 Descending Jacksonville Center
Thu 05:11:29 PM 29.1628 -82.3075 173° South 369 425 21,000 -1,200 Descending Jacksonville Center
Thu 05:12:29 PM 29.0628 -82.2964 174° South 364 419 19,800 -1,800 Descending Jacksonville Center
Thu 05:13:29 PM 28.9583 -82.2828 173° South 369 425 17,400 -2,050 Descending Jacksonville Center
Thu 05:15:48 PM 28.7000 -82.2667 177° South 368 423 13,000 -1,598 Descending Tampa TRACON
Thu 05:16:48 PM 28.6000 -82.2500 172° South 347 399 12,100 -800 Descending Tampa TRACON
Thu 05:17:48 PM 28.5167 -82.2833 199° South 346 398 11,400 -750 Descending Tampa TRACON
Thu 05:18:48 PM 28.4833 -82.3833 249° West 342 394 10,600 -700 Descending Tampa TRACON
Thu 05:19:48 PM 28.4500 -82.4667 246° West 326 375 10,000 -300 Descending Tampa TRACON
Thu 05:20:48 PM 28.4000 -82.5500 236° Southwest 325 374 10,000  Level Tampa TRACON
Thu 05:21:48 PM 28.3333 -82.6333 228° Southwest 322 371 10,000  Level Tampa TRACON
Thu 05:22:48 PM 28.2500 -82.6833 208° Southwest 325 374 10,000 -700 Level Tampa TRACON
Thu 05:23:48 PM 28.1833 -82.7333 213° Southwest 310 357 8,600 -1,900 Descending Tampa TRACON
Thu 05:24:48 PM 28.1000 -82.7500 190° South 278 320 6,200 -2,350 Descending Tampa TRACON
Thu 05:25:48 PM 28.0333 -82.7500 180° South 263 303 3,900 -1,750 Descending Tampa TRACON
Thu 05:26:48 PM 27.9667 -82.7500 180° South 230 265 2,700 -700 Descending Tampa TRACON
Thu 05:27:48 PM 27.9000 -82.7500 180° South 202 232 2,500 -550 Descending Tampa TRACON
Thu 05:28:48 PM 27.8500 -82.7333 164° South 213 245 1,600 -550 Descending Tampa TRACON
Thu 05:29:48 PM 27.8333 -82.6833 111° Southeast 181 208 1,400 -450 Descending Tampa TRACON
Thu 05:30:48 PM 27.8667 -82.6833 360° North 136 157 700 -700 Descending Tampa TRACON
Thu 05:33:00 PM 27.9100 -82.6875 310° West  Level Estimated

Login

Don't have an account? Register now (free) for customized features, flight alerts, and more!